sensor_id;sensor_type;location;lat;lon;timestamp;temperature;humidity
70593;DHT22;58294;42.988;20.338;2023-06-14T00:13:10;436.00;2355.20
70593;DHT22;58294;42.988;20.338;2023-06-14T00:15:36;435.90;2355.20
70593;DHT22;58294;42.988;20.338;2023-06-14T00:18:02;435.70;2355.20
70593;DHT22;58294;42.988;20.338;2023-06-14T00:20:30;435.70;2355.20
70593;DHT22;58294;42.988;20.338;2023-06-14T00:22:58;435.70;2355.20
70593;DHT22;58294;42.988;20.338;2023-06-14T00:25:24;435.70;2355.20
70593;DHT22;58294;42.988;20.338;2023-06-14T00:27:54;435.60;2355.20
70593;DHT22;58294;42.988;20.338;2023-06-14T00:30:20;435.60;2355.20
70593;DHT22;58294;42.988;20.338;2023-06-14T00:32:46;435.60;2355.20
70593;DHT22;58294;42.988;20.338;2023-06-14T00:35:12;435.60;2355.20
70593;DHT22;58294;42.988;20.338;2023-06-14T00:37:39;435.60;2355.20
70593;DHT22;58294;42.988;20.338;2023-06-14T00:40:06;435.60;2355.20
70593;DHT22;58294;42.988;20.338;2023-06-14T00:42:32;435.60;2355.20
70593;DHT22;58294;42.988;20.338;2023-06-14T00:44:59;435.60;2355.20
70593;DHT22;58294;42.988;20.338;2023-06-14T00:47:25;435.70;2355.20
70593;DHT22;58294;42.988;20.338;2023-06-14T00:49:53;435.70;2355.20
70593;DHT22;58294;42.988;20.338;2023-06-14T00:52:19;435.80;2355.20
70593;DHT22;58294;42.988;20.338;2023-06-14T00:54:46;435.80;2355.20
70593;DHT22;58294;42.988;20.338;2023-06-14T00:57:12;435.80;2355.20
70593;DHT22;58294;42.988;20.338;2023-06-14T01:02:08;435.90;2355.20
70593;DHT22;58294;42.988;20.338;2023-06-14T01:04:34;435.90;2355.20
70593;DHT22;58294;42.988;20.338;2023-06-14T01:10:07;435.90;2355.20
70593;DHT22;58294;42.988;20.338;2023-06-14T01:12:44;435.90;2355.20
70593;DHT22;58294;42.988;20.338;2023-06-14T01:15:14;435.90;2355.20
70593;DHT22;58294;42.988;20.338;2023-06-14T01:17:41;435.90;2355.20
70593;DHT22;58294;42.988;20.338;2023-06-14T01:20:14;435.90;2355.20
70593;DHT22;58294;42.988;20.338;2023-06-14T01:22:53;435.90;2355.20
70593;DHT22;58294;42.988;20.338;2023-06-14T01:25:22;436.00;2355.20
70593;DHT22;58294;42.988;20.338;2023-06-14T01:27:50;436.00;2355.20
70593;DHT22;58294;42.988;20.338;2023-06-14T01:30:17;436.00;2355.20
70593;DHT22;58294;42.988;20.338;2023-06-14T01:32:44;436.00;2355.20
70593;DHT22;58294;42.988;20.338;2023-06-14T01:35:10;436.00;2355.20
70593;DHT22;58294;42.988;20.338;2023-06-14T07:23:25;512.10;2380.80
70593;DHT22;58294;42.988;20.338;2023-06-14T07:25:51;512.20;2380.80
70593;DHT22;58294;42.988;20.338;2023-06-14T07:28:17;512.10;2380.80
70593;DHT22;58294;42.988;20.338;2023-06-14T07:30:43;512.00;2380.80
70593;DHT22;58294;42.988;20.338;2023-06-14T07:52:40;538.20;2406.40
70593;DHT22;58294;42.988;20.338;2023-06-14T07:55:06;538.10;2406.40
70593;DHT22;58294;42.988;20.338;2023-06-14T07:57:32;538.10;2304.00
70593;DHT22;58294;42.988;20.338;2023-06-14T07:59:58;538.00;2355.20
70593;DHT22;58294;42.988;20.338;2023-06-14T08:02:24;537.90;2355.20
70593;DHT22;58294;42.988;20.338;2023-06-14T08:04:50;537.80;2329.60
70593;DHT22;58294;42.988;20.338;2023-06-14T08:07:15;537.80;2124.80
70593;DHT22;58294;42.988;20.338;2023-06-14T08:09:41;537.90;2252.80
70593;DHT22;58294;42.988;20.338;2023-06-14T08:12:07;537.80;2227.20
70593;DHT22;58294;42.988;20.338;2023-06-14T08:14:35;537.70;2227.20
70593;DHT22;58294;42.988;20.338;2023-06-14T08:17:01;537.80;2278.40
70593;DHT22;58294;42.988;20.338;2023-06-14T08:19:27;537.90;2355.20
70593;DHT22;58294;42.988;20.338;2023-06-14T08:21:53;538.10;2355.20
70593;DHT22;58294;42.988;20.338;2023-06-14T08:24:24;538.10;2252.80
70593;DHT22;58294;42.988;20.338;2023-06-14T08:26:53;538.10;2227.20
70593;DHT22;58294;42.988;20.338;2023-06-14T08:29:19;538.00;2099.20
70593;DHT22;58294;42.988;20.338;2023-06-14T08:31:45;538.10;2150.40
70593;DHT22;58294;42.988;20.338;2023-06-14T08:34:11;538.10;2252.80
70593;DHT22;58294;42.988;20.338;2023-06-14T08:36:37;538.20;2355.20
70593;DHT22;58294;42.988;20.338;2023-06-14T08:39:03;538.50;2406.40
70593;DHT22;58294;42.988;20.338;2023-06-14T08:41:29;563.20;2432.00
70593;DHT22;58294;42.988;20.338;2023-06-14T09:01:20;588.90;2355.20
70593;DHT22;58294;42.988;20.338;2023-06-14T09:06:14;589.00;2432.00
70593;DHT22;58294;42.988;20.338;2023-06-14T09:08:45;589.20;2432.00
70593;DHT22;58294;42.988;20.338;2023-06-14T09:13:39;589.60;2278.40
70593;DHT22;58294;42.988;20.338;2023-06-14T09:16:07;589.30;2278.40
70593;DHT22;58294;42.988;20.338;2023-06-14T09:21:11;589.50;2278.40
70593;DHT22;58294;42.988;20.338;2023-06-14T09:23:42;589.60;2201.60
70593;DHT22;58294;42.988;20.338;2023-06-14T09:26:13;589.60;2048.00
70593;DHT22;58294;42.988;20.338;2023-06-14T09:28:46;589.50;2022.40
70593;DHT22;58294;42.988;20.338;2023-06-14T09:31:13;589.40;2048.00
70593;DHT22;58294;42.988;20.338;2023-06-14T09:33:42;589.20;1971.20
70593;DHT22;58294;42.988;20.338;2023-06-14T09:36:20;589.20;1971.20
70593;DHT22;58294;42.988;20.338;2023-06-14T09:41:20;589.00;2150.40
70593;DHT22;58294;42.988;20.338;2023-06-14T09:43:48;588.80;2099.20
70593;DHT22;58294;42.988;20.338;2023-06-14T09:46:16;564.10;2150.40
70593;DHT22;58294;42.988;20.338;2023-06-14T09:48:44;563.90;2124.80
70593;DHT22;58294;42.988;20.338;2023-06-14T09:51:14;563.80;2227.20
70593;DHT22;58294;42.988;20.338;2023-06-14T09:53:41;563.60;2278.40
70593;DHT22;58294;42.988;20.338;2023-06-14T09:56:09;563.60;2329.60
70593;DHT22;58294;42.988;20.338;2023-06-14T09:58:38;563.60;2406.40
70593;DHT22;58294;42.988;20.338;2023-06-14T10:01:07;563.80;2432.00
70593;DHT22;58294;42.988;20.338;2023-06-14T10:03:34;563.90;2432.00
70593;DHT22;58294;42.988;20.338;2023-06-14T10:06:03;564.10;2432.00
70593;DHT22;58294;42.988;20.338;2023-06-14T10:08:36;588.80;2432.00
70593;DHT22;58294;42.988;20.338;2023-06-14T10:11:02;588.80;2406.40
70593;DHT22;58294;42.988;20.338;2023-06-14T10:13:32;588.80;2406.40
70593;DHT22;58294;42.988;20.338;2023-06-14T10:16:05;588.90;2406.40
70593;DHT22;58294;42.988;20.338;2023-06-14T10:24:08;589.10;2432.00
70593;DHT22;58294;42.988;20.338;2023-06-14T10:26:50;589.10;2432.00
70593;DHT22;58294;42.988;20.338;2023-06-14T10:29:16;589.30;2432.00
70593;DHT22;58294;42.988;20.338;2023-06-14T10:39:15;615.20;2432.00
70593;DHT22;58294;42.988;20.338;2023-06-14T10:41:49;615.30;2432.00
70593;DHT22;58294;42.988;20.338;2023-06-14T11:07:34;717.50;2432.00
70593;DHT22;58294;42.988;20.338;2023-06-14T11:12:48;717.30;2073.60
70593;DHT22;58294;42.988;20.338;2023-06-14T11:15:14;717.60;2432.00
70593;DHT22;58294;42.988;20.338;2023-06-14T11:17:50;742.70;2432.00
70593;DHT22;58294;42.988;20.338;2023-06-14T11:30:03;716.90;1664.00
70593;DHT22;58294;42.988;20.338;2023-06-14T11:32:31;691.90;1587.20
70593;DHT22;58294;42.988;20.338;2023-06-14T11:34:57;691.50;1510.40
70593;DHT22;58294;42.988;20.338;2023-06-14T11:37:28;666.50;1536.00
70593;DHT22;58294;42.988;20.338;2023-06-14T11:39:58;666.10;1612.80
70593;DHT22;58294;42.988;20.338;2023-06-14T11:42:26;665.80;1638.40
70593;DHT22;58294;42.988;20.338;2023-06-14T11:44:54;640.80;1664.00
70593;DHT22;58294;42.988;20.338;2023-06-14T11:47:20;640.50;1664.00
70593;DHT22;58294;42.988;20.338;2023-06-14T11:54:41;640.00;1817.60
70593;DHT22;58294;42.988;20.338;2023-06-14T11:57:07;615.30;1894.40
70593;DHT22;58294;42.988;20.338;2023-06-14T11:59:44;615.00;1920.00
70593;DHT22;58294;42.988;20.338;2023-06-14T12:02:13;614.70;2176.00
70593;DHT22;58294;42.988;20.338;2023-06-14T12:04:48;614.40;2432.00
70593;DHT22;58294;42.988;20.338;2023-06-14T12:07:15;589.50;2432.00
70593;DHT22;58294;42.988;20.338;2023-06-14T12:17:32;666.10;2432.00
70593;DHT22;58294;42.988;20.338;2023-06-14T12:19:58;666.10;2432.00
70593;DHT22;58294;42.988;20.338;2023-06-14T12:30:01;717.10;2432.00
70593;DHT22;58294;42.988;20.338;2023-06-14T12:32:28;717.00;2432.00
70593;DHT22;58294;42.988;20.338;2023-06-14T12:34:55;717.00;2432.00
70593;DHT22;58294;42.988;20.338;2023-06-14T12:37:21;717.00;2432.00
70593;DHT22;58294;42.988;20.338;2023-06-14T12:39:47;716.90;2432.00
70593;DHT22;58294;42.988;20.338;2023-06-14T12:42:13;717.30;2432.00
70593;DHT22;58294;42.988;20.338;2023-06-14T12:44:40;717.50;2432.00
70593;DHT22;58294;42.988;20.338;2023-06-14T12:47:07;717.60;2432.00
70593;DHT22;58294;42.988;20.338;2023-06-14T12:49:33;717.50;2304.00
70593;DHT22;58294;42.988;20.338;2023-06-14T12:51:59;717.30;2150.40
70593;DHT22;58294;42.988;20.338;2023-06-14T12:54:25;717.10;2150.40
70593;DHT22;58294;42.988;20.338;2023-06-14T12:56:53;717.00;2150.40
70593;DHT22;58294;42.988;20.338;2023-06-14T12:59:20;716.80;2022.40
70593;DHT22;58294;42.988;20.338;2023-06-14T13:01:46;692.10;2099.20
70593;DHT22;58294;42.988;20.338;2023-06-14T13:04:15;692.00;1996.80
70593;DHT22;58294;42.988;20.338;2023-06-14T13:06:41;691.90;1792.00
70593;DHT22;58294;42.988;20.338;2023-06-14T13:09:06;691.60;1792.00
70593;DHT22;58294;42.988;20.338;2023-06-14T13:11:33;691.30;1689.60
70593;DHT22;58294;42.988;20.338;2023-06-14T13:13:59;666.40;1843.20
70593;DHT22;58294;42.988;20.338;2023-06-14T13:16:25;666.20;1792.00
70593;DHT22;58294;42.988;20.338;2023-06-14T13:18:51;666.00;1868.80
70593;DHT22;58294;42.988;20.338;2023-06-14T13:21:16;665.90;1920.00
70593;DHT22;58294;42.988;20.338;2023-06-14T13:23:42;665.70;1945.60
70593;DHT22;58294;42.988;20.338;2023-06-14T13:26:08;640.90;1817.60
70593;DHT22;58294;42.988;20.338;2023-06-14T13:28:34;640.60;1740.80
70593;DHT22;58294;42.988;20.338;2023-06-14T13:31:00;640.40;1817.60
70593;DHT22;58294;42.988;20.338;2023-06-14T13:33:27;640.30;1817.60
70593;DHT22;58294;42.988;20.338;2023-06-14T13:35:53;640.10;1868.80
70593;DHT22;58294;42.988;20.338;2023-06-14T13:38:19;615.30;1920.00
70593;DHT22;58294;42.988;20.338;2023-06-14T13:40:45;615.00;1945.60
70593;DHT22;58294;42.988;20.338;2023-06-14T13:43:11;614.70;2176.00
70593;DHT22;58294;42.988;20.338;2023-06-14T13:48:03;589.40;2252.80
70593;DHT22;58294;42.988;20.338;2023-06-14T13:50:29;589.20;2432.00
70593;DHT22;58294;42.988;20.338;2023-06-14T16:24:11;564.00;2432.00
70593;DHT22;58294;42.988;20.338;2023-06-14T16:26:39;563.90;2380.80
70593;DHT22;58294;42.988;20.338;2023-06-14T16:31:31;563.30;2432.00
70593;DHT22;58294;42.988;20.338;2023-06-14T16:33:57;538.40;2406.40
70593;DHT22;58294;42.988;20.338;2023-06-14T16:36:24;538.30;2406.40
70593;DHT22;58294;42.988;20.338;2023-06-14T16:38:50;538.20;2406.40
70593;DHT22;58294;42.988;20.338;2023-06-14T16:55:54;512.60;2380.80
70593;DHT22;58294;42.988;20.338;2023-06-14T16:58:20;512.40;2380.80
70593;DHT22;58294;42.988;20.338;2023-06-14T18:38:18;512.10;2380.80
70593;DHT22;58294;42.988;20.338;2023-06-14T18:40:44;487.20;2380.80
70593;DHT22;58294;42.988;20.338;2023-06-14T18:43:10;487.10;2380.80
70593;DHT22;58294;42.988;20.338;2023-06-14T18:45:37;487.10;2380.80
70593;DHT22;58294;42.988;20.338;2023-06-14T18:48:03;487.10;2380.80
70593;DHT22;58294;42.988;20.338;2023-06-14T18:50:28;487.00;2380.80
70593;DHT22;58294;42.988;20.338;2023-06-14T18:57:48;486.90;2380.80
70593;DHT22;58294;42.988;20.338;2023-06-14T20:03:41;461.20;2380.80
70593;DHT22;58294;42.988;20.338;2023-06-14T20:06:09;461.20;2380.80
70593;DHT22;58294;42.988;20.338;2023-06-14T20:08:36;461.10;2380.80
70593;DHT22;58294;42.988;20.338;2023-06-14T20:11:02;461.00;2380.80
70593;DHT22;58294;42.988;20.338;2023-06-14T20:13:28;461.00;2380.80
70593;DHT22;58294;42.988;20.338;2023-06-14T20:15:53;461.00;2380.80
70593;DHT22;58294;42.988;20.338;2023-06-14T20:18:22;460.90;2380.80
